Time,TemperatureF,DewpointF,PressureIn,WindDirection,WindDirectionDegrees,WindSpeedMPH,WindSpeedGustMPH,Humidity,HourlyPrecipIn,Conditions,Clouds,dailyrainin,SolarRadiationWatts/m^2,SoftwareType,DateUTC
2013-09-15 00:01:00,69.9,61.6,29.68,SSW,200,3.5,3.5,75,0.00,CLR,,0.00,0.0,WeatherDisplay:10.37,2013-09-15 07:01:00,
2013-09-15 00:06:00,69.7,61.8,29.68,SSW,200,3.5,3.5,76,0.00,CLR,,0.00,0.0,WeatherDisplay:10.37,2013-09-15 07:06:00,
2013-09-15 00:11:00,69.5,62.0,29.68,SSW,200,3.5,3.5,77,0.00,CLR,,0.00,0.0,WeatherDisplay:10.37,2013-09-15 07:11:00,
2013-09-15 00:16:00,69.2,62.4,29.68,South,191,4.6,4.6,79,0.00,CLR,,0.00,0.0,WeatherDisplay:10.37,2013-09-15 07:16:00,
2013-09-15 00:21:00,68.8,63.1,29.68,South,185,4.6,4.6,82,0.00,CLR,,0.00,0.0,WeatherDisplay:10.37,2013-09-15 07:21:00,
2013-09-15 00:26:00,68.5,63.1,29.68,South,184,3.5,3.5,83,0.00,CLR,,0.00,0.0,WeatherDisplay:10.37,2013-09-15 07:26:00,
2013-09-15 00:31:00,68.3,62.9,29.68,South,184,2.3,2.3,83,0.00,CLR,,0.00,0.0,WeatherDisplay:10.37,2013-09-15 07:31:00,
2013-09-15 00:36:00,68.2,63.2,29.69,South,184,3.5,3.5,84,0.00,CLR,,0.00,0.0,WeatherDisplay:10.37,2013-09-15 07:36:00,
2013-09-15 00:41:00,68.0,63.0,29.68,South,184,3.5,3.5,84,0.00,CLR,,0.00,0.0,WeatherDisplay:10.37,2013-09-15 07:41:00,
2013-09-15 00:46:00,67.9,63.2,29.68,South,184,2.3,2.3,85,0.00,CLR,,0.00,0.0,WeatherDisplay:10.37,2013-09-15 07:46:00,
2013-09-15 00:51:00,67.8,63.1,29.68,South,184,2.3,2.3,85,0.00,CLR,,0.00,0.0,WeatherDisplay:10.37,2013-09-15 07:51:00,
2013-09-15 00:56:00,67.7,63.0,29.68,South,184,1.2,1.2,85,0.00,CLR,,0.00,0.0,WeatherDisplay:10.37,2013-09-15 07:56:00,
2013-09-15 01:01:00,67.6,63.3,29.68,South,184,1.2,1.2,86,0.00,CLR,,0.00,0.0,WeatherDisplay:10.37,2013-09-15 08:01:00,
2013-09-15 01:06:00,67.5,63.2,29.68,South,184,3.5,3.5,86,0.00,CLR,,0.00,0.0,WeatherDisplay:10.37,2013-09-15 08:06:00,
2013-09-15 01:11:00,67.4,63.1,29.69,South,184,2.3,2.3,86,0.00,CLR,,0.00,0.0,WeatherDisplay:10.37,2013-09-15 08:11:00,
2013-09-15 01:16:00,67.3,63.0,29.69,South,184,1.2,1.2,86,0.00,CLR,,0.00,0.0,WeatherDisplay:10.37,2013-09-15 08:16:00,
2013-09-15 01:21:00,67.3,63.3,29.69,South,184,0.0,0.0,87,0.00,CLR,,0.00,0.0,WeatherDisplay:10.37,2013-09-15 08:21:00,
2013-09-15 01:26:00,67.2,62.9,29.69,South,184,0.0,0.0,86,0.00,CLR,,0.00,0.0,WeatherDisplay:10.37,2013-09-15 08:26:00,
2013-09-15 01:31:00,67.2,62.9,29.69,South,184,0.0,0.0,86,0.00,CLR,,0.00,0.0,WeatherDisplay:10.37,2013-09-15 08:31:00,
2013-09-15 01:36:00,67.1,63.1,29.68,South,184,0.0,0.0,87,0.00,CLR,,0.00,0.0,WeatherDisplay:10.37,2013-09-15 08:36:00,
2013-09-15 01:41:00,67.1,63.1,29.68,South,184,0.0,0.0,87,0.00,CLR,,0.00,0.0,WeatherDisplay:10.37,2013-09-15 08:41:00,
2013-09-15 01:46:00,67.0,63.0,29.69,South,184,0.0,0.0,87,0.00,CLR,,0.00,0.0,WeatherDisplay:10.37,2013-09-15 08:46:00,
2013-09-15 01:51:00,67.0,63.0,29.69,South,184,0.0,0.0,87,0.00,CLR,,0.00,0.0,WeatherDisplay:10.37,2013-09-15 08:51:00,
2013-09-15 01:56:00,67.0,63.0,29.69,South,184,0.0,0.0,87,0.00,CLR,,0.00,0.0,WeatherDisplay:10.37,2013-09-15 08:56:00,
2013-09-15 02:01:00,66.9,62.9,29.69,South,184,0.0,0.0,87,0.00,CLR,,0.00,0.0,WeatherDisplay:10.37,2013-09-15 09:01:00,
2013-09-15 02:06:00,66.9,62.9,29.68,South,184,0.0,0.0,87,0.00,CLR,,0.00,0.0,WeatherDisplay:10.37,2013-09-15 09:06:00,
2013-09-15 02:11:00,66.9,62.9,29.69,South,184,0.0,0.0,87,0.00,CLR,,0.00,0.0,WeatherDisplay:10.37,2013-09-15 09:11:00,
2013-09-15 02:16:00,66.8,62.5,29.69,South,184,0.0,0.0,86,0.00,CLR,,0.00,0.0,WeatherDisplay:10.37,2013-09-15 09:16:00,
2013-09-15 02:21:00,66.8,62.5,29.69,South,184,0.0,0.0,86,0.00,CLR,,0.00,0.0,WeatherDisplay:10.37,2013-09-15 09:21:00,
2013-09-15 02:26:00,66.8,62.5,29.69,South,184,0.0,0.0,86,0.00,CLR,,0.00,0.0,WeatherDisplay:10.37,2013-09-15 09:26:00,
2013-09-15 02:31:00,66.8,62.5,29.69,South,184,0.0,0.0,86,0.00,CLR,,0.00,0.0,WeatherDisplay:10.37,2013-09-15 09:31:00,
2013-09-15 02:36:00,66.8,62.5,29.69,South,184,0.0,0.0,86,0.00,CLR,,0.00,0.0,WeatherDisplay:10.37,2013-09-15 09:36:00,
2013-09-15 02:41:00,66.8,62.5,29.69,South,184,0.0,0.0,86,0.00,CLR,,0.00,0.0,WeatherDisplay:10.37,2013-09-15 09:41:00,
2013-09-15 02:46:00,66.7,62.4,29.69,South,184,0.0,0.0,86,0.00,CLR,,0.00,0.0,WeatherDisplay:10.37,2013-09-15 09:46:00,
2013-09-15 02:51:00,66.5,62.2,29.69,South,184,0.0,0.0,86,0.00,CLR,,0.00,0.0,WeatherDisplay:10.37,2013-09-15 09:51:00,
2013-09-15 02:56:00,66.4,62.1,29.69,South,184,0.0,0.0,86,0.00,CLR,,0.00,0.0,WeatherDisplay:10.37,2013-09-15 09:56:00,
2013-09-15 03:01:00,66.4,62.4,29.69,South,184,0.0,0.0,87,0.00,CLR,,0.00,0.0,WeatherDisplay:10.37,2013-09-15 10:01:00,
2013-09-15 03:06:00,66.4,62.4,29.69,South,184,0.0,0.0,87,0.00,CLR,,0.00,0.0,WeatherDisplay:10.37,2013-09-15 10:06:00,
2013-09-15 03:11:00,66.3,62.3,29.69,South,184,0.0,0.0,87,0.00,CLR,,0.00,0.0,WeatherDisplay:10.37,2013-09-15 10:11:00,
2013-09-15 03:16:00,66.3,62.3,29.69,South,184,0.0,0.0,87,0.00,CLR,,0.00,0.0,WeatherDisplay:10.37,2013-09-15 10:16:00,
2013-09-15 03:21:00,66.2,62.2,29.69,South,184,0.0,0.0,87,0.00,CLR,,0.00,0.0,WeatherDisplay:10.37,2013-09-15 10:21:00,
2013-09-15 03:26:00,66.2,62.2,29.69,South,184,0.0,0.0,87,0.00,CLR,,0.00,0.0,WeatherDisplay:10.37,2013-09-15 10:26:00,
2013-09-15 03:31:00,66.2,62.2,29.69,South,184,2.3,0.0,87,0.00,CLR,,0.00,0.0,WeatherDisplay:10.37,2013-09-15 10:31:00,
2013-09-15 03:36:00,66.2,62.2,29.69,South,184,1.2,0.0,87,0.00,CLR,,0.00,0.0,WeatherDisplay:10.37,2013-09-15 10:36:00,
2013-09-15 03:41:00,66.1,62.1,29.69,South,184,1.2,0.0,87,0.00,CLR,,0.00,0.0,WeatherDisplay:10.37,2013-09-15 10:41:00,
2013-09-15 03:46:00,66.1,62.1,29.69,South,184,0.0,0.0,87,0.00,CLR,,0.00,0.0,WeatherDisplay:10.37,2013-09-15 10:46:00,
2013-09-15 03:51:00,66.1,62.1,29.69,South,184,0.0,0.0,87,0.00,CLR,,0.00,0.0,WeatherDisplay:10.37,2013-09-15 10:51:00,
2013-09-15 03:56:00,66.1,62.1,29.69,South,184,0.0,0.0,87,0.00,CLR,,0.00,0.0,WeatherDisplay:10.37,2013-09-15 10:56:00,
2013-09-15 04:01:00,66.1,62.4,29.69,South,184,0.0,0.0,88,0.00,CLR,,0.00,0.0,WeatherDisplay:10.37,2013-09-15 11:01:00,
2013-09-15 04:06:00,66.1,62.1,29.69,South,184,0.0,0.0,87,0.00,CLR,,0.00,0.0,WeatherDisplay:10.37,2013-09-15 11:06:00,
2013-09-15 04:11:00,66.1,62.4,29.69,South,184,0.0,0.0,88,0.00,CLR,,0.00,0.0,WeatherDisplay:10.37,2013-09-15 11:11:00,
2013-09-15 04:16:00,65.9,61.9,29.69,South,184,0.0,0.0,87,0.00,CLR,,0.00,0.0,WeatherDisplay:10.37,2013-09-15 11:16:00,
2013-09-15 04:21:00,65.9,62.2,29.69,South,184,0.0,0.0,88,0.00,CLR,,0.00,0.0,WeatherDisplay:10.37,2013-09-15 11:21:00,
2013-09-15 04:26:00,65.9,62.2,29.69,South,184,0.0,0.0,88,0.00,CLR,,0.00,0.0,WeatherDisplay:10.37,2013-09-15 11:26:00,
2013-09-15 04:31:00,65.9,62.2,29.69,South,184,0.0,0.0,88,0.00,CLR,,0.00,0.0,WeatherDisplay:10.37,2013-09-15 11:31:00,
2013-09-15 04:36:00,65.9,62.2,29.70,South,184,0.0,0.0,88,0.00,CLR,,0.00,0.0,WeatherDisplay:10.37,2013-09-15 11:36:00,
2013-09-15 04:41:00,65.8,62.1,29.70,South,184,0.0,0.0,88,0.00,CLR,,0.00,0.0,WeatherDisplay:10.37,2013-09-15 11:41:00,
2013-09-15 04:46:00,65.8,62.1,29.70,South,184,0.0,0.0,88,0.00,CLR,,0.00,0.0,WeatherDisplay:10.37,2013-09-15 11:46:00,
2013-09-15 04:51:00,65.7,62.0,29.70,South,184,0.0,0.0,88,0.00,CLR,,0.00,0.0,WeatherDisplay:10.37,2013-09-15 11:51:00,
2013-09-15 04:56:00,65.7,62.0,29.70,South,184,0.0,0.0,88,0.00,CLR,,0.00,0.0,WeatherDisplay:10.37,2013-09-15 11:56:00,
2013-09-15 05:01:00,65.6,61.9,29.70,South,184,0.0,0.0,88,0.00,CLR,,0.00,0.0,WeatherDisplay:10.37,2013-09-15 12:01:00,
2013-09-15 05:06:00,65.6,61.9,29.70,South,184,0.0,0.0,88,0.00,CLR,,0.00,0.0,WeatherDisplay:10.37,2013-09-15 12:06:00,
2013-09-15 05:11:00,65.6,61.9,29.70,South,184,0.0,0.0,88,0.00,CLR,,0.00,0.0,WeatherDisplay:10.37,2013-09-15 12:11:00,
2013-09-15 05:16:00,65.6,61.9,29.70,South,184,0.0,0.0,88,0.00,CLR,,0.00,0.0,WeatherDisplay:10.37,2013-09-15 12:16:00,
2013-09-15 05:21:00,65.5,61.9,29.70,South,184,0.0,0.0,88,0.00,CLR,,0.00,0.0,WeatherDisplay:10.37,2013-09-15 12:21:00,
2013-09-15 05:26:00,65.5,62.2,29.71,South,184,0.0,0.0,89,0.00,CLR,,0.00,0.0,WeatherDisplay:10.37,2013-09-15 12:26:00,
2013-09-15 05:31:00,65.5,62.2,29.71,South,184,0.0,0.0,89,0.00,CLR,,0.00,0.0,WeatherDisplay:10.37,2013-09-15 12:31:00,
2013-09-15 05:36:00,65.5,62.2,29.71,South,184,0.0,0.0,89,0.00,CLR,,0.00,0.0,WeatherDisplay:10.37,2013-09-15 12:36:00,
2013-09-15 05:41:00,65.5,62.2,29.71,South,184,0.0,0.0,89,0.00,CLR,,0.00,0.0,WeatherDisplay:10.37,2013-09-15 12:41:00,
2013-09-15 05:46:00,65.5,62.2,29.71,South,184,0.0,0.0,89,0.00,CLR,,0.00,0.0,WeatherDisplay:10.37,2013-09-15 12:46:00,
2013-09-15 05:51:00,65.5,62.2,29.71,South,184,0.0,0.0,89,0.00,CLR,,0.00,0.0,WeatherDisplay:10.37,2013-09-15 12:51:00,
2013-09-15 05:56:00,65.5,62.2,29.71,South,184,0.0,0.0,89,0.00,CLR,,0.00,0.0,WeatherDisplay:10.37,2013-09-15 12:56:00,
2013-09-15 06:01:00,65.4,62.1,29.71,South,184,0.0,0.0,89,0.00,CLR,,0.00,0.0,WeatherDisplay:10.37,2013-09-15 13:01:00,
2013-09-15 06:06:00,65.4,62.1,29.71,South,184,0.0,0.0,89,0.00,CLR,,0.00,0.0,WeatherDisplay:10.37,2013-09-15 13:06:00,
2013-09-15 06:11:00,65.4,62.4,29.71,South,184,2.3,2.3,90,0.00,CLR,,0.00,0.0,WeatherDisplay:10.37,2013-09-15 13:11:00,
2013-09-15 06:16:00,65.4,62.4,29.72,South,184,1.2,1.2,90,0.00,CLR,,0.00,0.0,WeatherDisplay:10.37,2013-09-15 13:16:00,
2013-09-15 06:21:00,65.3,62.0,29.72,South,184,0.0,0.0,89,0.00,CLR,,0.00,0.0,WeatherDisplay:10.37,2013-09-15 13:21:00,
2013-09-15 06:26:00,65.2,62.2,29.72,South,184,0.0,0.0,90,0.00,CLR,,0.00,0.0,WeatherDisplay:10.37,2013-09-15 13:26:00,
2013-09-15 06:31:00,65.2,62.2,29.72,South,184,0.0,0.0,90,0.00,CLR,,0.00,0.0,WeatherDisplay:10.37,2013-09-15 13:31:00,
2013-09-15 06:37:00,65.2,62.2,29.72,South,184,0.0,0.0,90,0.00,CLR,,0.00,0.0,WeatherDisplay:10.37,2013-09-15 13:37:00,
2013-09-15 06:42:00,65.1,62.1,29.72,South,184,0.0,0.0,90,0.00,BKN,,0.00,5.0,WeatherDisplay:10.37,2013-09-15 13:42:00,
2013-09-15 06:47:00,65.1,62.1,29.73,South,184,0.0,0.0,90,0.00,BKN,,0.00,9.0,WeatherDisplay:10.37,2013-09-15 13:47:00,
2013-09-15 06:52:00,65.0,62.3,29.73,South,184,0.0,0.0,91,0.00,BKN,,0.00,12.0,WeatherDisplay:10.37,2013-09-15 13:52:00,
2013-09-15 06:57:00,65.0,62.3,29.73,South,184,0.0,0.0,91,0.00,BKN,,0.00,18.0,WeatherDisplay:10.37,2013-09-15 13:57:00,
2013-09-15 07:02:00,65.0,62.3,29.73,South,184,0.0,0.0,91,0.00,BKN,,0.00,23.0,WeatherDisplay:10.37,2013-09-15 14:02:00,
2013-09-15 07:07:00,65.0,62.3,29.73,South,184,0.0,0.0,91,0.00,BKN,,0.00,30.0,WeatherDisplay:10.37,2013-09-15 14:07:00,
2013-09-15 07:12:00,65.1,62.4,29.73,South,184,0.0,0.0,91,0.00,BKN,,0.00,40.0,WeatherDisplay:10.37,2013-09-15 14:12:00,
2013-09-15 07:17:00,65.1,62.4,29.73,South,184,0.0,0.0,91,0.00,BKN,,0.00,49.0,WeatherDisplay:10.37,2013-09-15 14:17:00,
2013-09-15 07:22:00,65.2,62.5,29.73,South,184,0.0,0.0,91,0.00,BKN,,0.00,60.0,WeatherDisplay:10.37,2013-09-15 14:22:00,
2013-09-15 07:27:00,65.4,62.7,29.73,South,184,2.0,2.0,91,0.00,SCT,,0.00,70.0,WeatherDisplay:10.37,2013-09-15 14:27:00,
2013-09-15 07:32:00,65.6,62.9,29.73,South,184,1.2,1.2,91,0.00,SCT,,0.00,84.0,WeatherDisplay:10.37,2013-09-15 14:32:00,
2013-09-15 07:37:00,65.6,62.9,29.73,South,184,2.3,2.3,91,0.00,SCT,,0.00,98.0,WeatherDisplay:10.37,2013-09-15 14:37:00,
2013-09-15 07:42:00,65.7,63.0,29.73,South,184,2.3,2.3,91,0.00,SCT,,0.00,113.0,WeatherDisplay:10.37,2013-09-15 14:42:00,
2013-09-15 07:47:00,65.8,62.8,29.73,South,184,2.3,2.3,90,0.00,SCT,,0.00,132.0,WeatherDisplay:10.37,2013-09-15 14:47:00,
2013-09-15 07:52:00,66.0,63.0,29.73,South,184,3.5,3.5,90,0.00,SCT,,0.00,148.0,WeatherDisplay:10.37,2013-09-15 14:52:00,
2013-09-15 07:57:00,66.1,63.1,29.73,South,184,1.2,0.0,90,0.00,SCT,,0.00,162.0,WeatherDisplay:10.37,2013-09-15 14:57:00,
2013-09-15 08:02:00,66.3,63.3,29.73,South,184,1.2,1.2,90,0.00,FEW,,0.00,181.0,WeatherDisplay:10.37,2013-09-15 15:02:00,
2013-09-15 08:07:00,66.5,63.2,29.74,South,184,3.5,3.5,89,0.00,FEW,,0.00,195.0,WeatherDisplay:10.37,2013-09-15 15:07:00,
2013-09-15 08:12:00,66.6,63.3,29.74,South,184,3.5,3.5,89,0.00,FEW,,0.00,209.0,WeatherDisplay:10.37,2013-09-15 15:12:00,
2013-09-15 08:17:00,66.8,63.5,29.74,South,184,5.0,5.0,89,0.00,FEW,,0.00,221.0,WeatherDisplay:10.37,2013-09-15 15:17:00,
2013-09-15 08:22:00,66.7,63.4,29.74,South,184,4.0,4.0,89,0.00,FEW,,0.00,239.0,WeatherDisplay:10.37,2013-09-15 15:22:00,
2013-09-15 08:27:00,66.6,63.3,29.74,South,184,3.5,3.5,89,0.00,FEW,,0.00,255.0,WeatherDisplay:10.37,2013-09-15 15:27:00,
2013-09-15 08:32:00,66.6,63.3,29.74,South,184,3.5,3.5,89,0.00,FEW,,0.00,271.0,WeatherDisplay:10.37,2013-09-15 15:32:00,
2013-09-15 08:37:00,66.8,63.5,29.74,South,184,3.5,3.5,89,0.00,FEW,,0.00,292.0,WeatherDisplay:10.37,2013-09-15 15:37:00,
2013-09-15 08:42:00,67.0,64.0,29.74,South,186,4.6,4.6,90,0.00,FEW,,0.00,294.0,WeatherDisplay:10.37,2013-09-15 15:42:00,
2013-09-15 08:47:00,67.2,63.8,29.75,South,186,3.5,3.5,89,0.00,FEW,,0.00,318.0,WeatherDisplay:10.37,2013-09-15 15:47:00,
2013-09-15 08:52:00,67.4,64.0,29.75,South,182,5.0,5.0,89,0.00,FEW,,0.00,348.0,WeatherDisplay:10.37,2013-09-15 15:52:00,
2013-09-15 08:57:00,67.5,64.1,29.75,South,182,4.6,4.6,89,0.00,FEW,,0.00,350.0,WeatherDisplay:10.37,2013-09-15 15:57:00,
2013-09-15 09:02:00,67.5,63.8,29.75,South,184,3.5,3.5,88,0.00,SCT,,0.00,301.0,WeatherDisplay:10.37,2013-09-15 16:02:00,
2013-09-15 09:07:00,67.5,63.8,29.75,South,186,4.6,4.6,88,0.00,FEW,,0.00,378.0,WeatherDisplay:10.37,2013-09-15 16:07:00,
2013-09-15 09:12:00,67.6,63.9,29.75,South,186,4.6,4.6,88,0.00,FEW,,0.00,392.0,WeatherDisplay:10.37,2013-09-15 16:12:00,
2013-09-15 09:17:00,67.9,64.2,29.75,South,186,3.5,3.5,88,0.00,FEW,,0.00,404.0,WeatherDisplay:10.37,2013-09-15 16:17:00,
2013-09-15 09:22:00,68.4,64.7,29.75,South,186,4.6,4.6,88,0.00,FEW,,0.00,418.0,WeatherDisplay:10.37,2013-09-15 16:22:00,
2013-09-15 09:27:00,68.8,64.8,29.75,South,186,4.0,4.0,87,0.00,FEW,,0.00,425.0,WeatherDisplay:10.37,2013-09-15 16:27:00,
2013-09-15 09:32:00,69.3,64.9,29.75,South,186,3.5,3.5,86,0.00,FEW,,0.00,443.0,WeatherDisplay:10.37,2013-09-15 16:32:00,
2013-09-15 09:37:00,69.5,64.5,29.75,SSW,197,4.0,4.0,84,0.00,FEW,,0.00,457.0,WeatherDisplay:10.37,2013-09-15 16:37:00,
2013-09-15 09:42:00,69.8,64.4,29.75,SSW,198,3.5,3.5,83,0.00,FEW,,0.00,471.0,WeatherDisplay:10.37,2013-09-15 16:42:00,
2013-09-15 09:47:00,70.2,64.8,29.75,SSW,198,3.0,3.0,83,0.00,FEW,,0.00,483.0,WeatherDisplay:10.37,2013-09-15 16:47:00,
2013-09-15 09:52:00,70.8,65.0,29.75,SSW,198,3.5,3.5,82,0.00,FEW,,0.00,501.0,WeatherDisplay:10.37,2013-09-15 16:52:00,
2013-09-15 09:57:00,71.5,65.4,29.75,SSW,198,1.0,0.0,81,0.00,FEW,,0.00,512.0,WeatherDisplay:10.37,2013-09-15 16:57:00,
2013-09-15 10:02:00,72.1,65.2,29.75,SSW,202,2.3,2.3,79,0.00,FEW,,0.00,524.0,WeatherDisplay:10.37,2013-09-15 17:02:00,
2013-09-15 10:07:00,72.8,65.5,29.75,SSW,202,3.0,3.0,78,0.00,FEW,,0.00,536.0,WeatherDisplay:10.37,2013-09-15 17:07:00,
2013-09-15 10:12:00,73.3,65.3,29.75,SSW,202,2.3,2.3,76,0.00,FEW,,0.00,548.0,WeatherDisplay:10.37,2013-09-15 17:12:00,
2013-09-15 10:17:00,73.8,65.0,29.75,SSW,202,3.5,3.5,74,0.00,FEW,,0.00,561.0,WeatherDisplay:10.37,2013-09-15 17:17:00,
2013-09-15 10:22:00,74.6,65.4,29.75,SSW,202,1.2,1.2,73,0.00,FEW,,0.00,573.0,WeatherDisplay:10.37,2013-09-15 17:22:00,
2013-09-15 10:27:00,75.4,65.7,29.75,SSW,202,2.3,2.3,72,0.00,FEW,,0.00,582.0,WeatherDisplay:10.37,2013-09-15 17:27:00,
2013-09-15 10:32:00,75.8,65.3,29.75,SSW,205,3.5,3.5,70,0.00,FEW,,0.00,592.0,WeatherDisplay:10.37,2013-09-15 17:32:00,
2013-09-15 10:37:00,75.9,65.0,29.75,SSW,205,3.5,3.5,69,0.00,FEW,,0.00,601.0,WeatherDisplay:10.37,2013-09-15 17:37:00,
2013-09-15 10:42:00,76.3,65.4,29.75,SSW,205,3.5,3.5,69,0.00,FEW,,0.00,612.0,WeatherDisplay:10.37,2013-09-15 17:42:00,
2013-09-15 10:47:00,76.6,65.2,29.75,SSW,206,3.5,3.5,68,0.00,FEW,,0.00,622.0,WeatherDisplay:10.37,2013-09-15 17:47:00,
2013-09-15 10:52:00,76.7,64.5,29.75,SSW,208,3.5,3.5,66,0.00,FEW,,0.00,633.0,WeatherDisplay:10.37,2013-09-15 17:52:00,
2013-09-15 10:57:00,76.9,64.7,29.75,SSW,209,4.0,4.0,66,0.00,FEW,,0.00,640.0,WeatherDisplay:10.37,2013-09-15 17:57:00,
2013-09-15 11:02:00,77.4,65.1,29.74,SSW,209,2.3,2.3,66,0.00,FEW,,0.00,650.0,WeatherDisplay:10.37,2013-09-15 18:02:00,
2013-09-15 11:07:00,78.3,65.1,29.74,SW,234,5.8,5.8,64,0.00,FEW,,0.00,657.0,WeatherDisplay:10.37,2013-09-15 18:07:00,
2013-09-15 11:12:00,78.7,65.0,29.74,SW,236,5.0,5.0,63,0.00,FEW,,0.00,666.0,WeatherDisplay:10.37,2013-09-15 18:12:00,
2013-09-15 11:17:00,79.0,65.3,29.74,SW,236,3.5,3.5,63,0.00,FEW,,0.00,675.0,WeatherDisplay:10.37,2013-09-15 18:17:00,
2013-09-15 11:22:00,79.6,65.0,29.74,WSW,238,4.6,4.6,61,0.00,FEW,,0.00,682.0,WeatherDisplay:10.37,2013-09-15 18:22:00,
2013-09-15 11:27:00,80.2,64.6,29.74,WSW,247,4.6,4.6,59,0.00,FEW,,0.00,689.0,WeatherDisplay:10.37,2013-09-15 18:27:00,
2013-09-15 11:32:00,80.5,64.9,29.74,WSW,247,3.5,3.5,59,0.00,FEW,,0.00,696.0,WeatherDisplay:10.37,2013-09-15 18:32:00,
2013-09-15 11:37:00,81.1,64.9,29.74,WSW,247,3.5,3.5,58,0.00,FEW,,0.00,703.0,WeatherDisplay:10.37,2013-09-15 18:37:00,
2013-09-15 11:42:00,81.8,64.6,29.74,WSW,248,3.5,3.5,56,0.00,FEW,,0.00,705.0,WeatherDisplay:10.37,2013-09-15 18:42:00,
2013-09-15 11:47:00,82.3,64.0,29.74,SW,218,7.0,7.0,54,0.00,FEW,,0.00,712.0,WeatherDisplay:10.37,2013-09-15 18:47:00,
2013-09-15 11:52:00,82.1,63.8,29.73,WSW,251,5.8,5.8,54,0.00,FEW,,0.00,717.0,WeatherDisplay:10.37,2013-09-15 18:52:00,
2013-09-15 11:57:00,82.5,64.7,29.73,WSW,250,5.0,5.0,55,0.00,FEW,,0.00,721.0,WeatherDisplay:10.37,2013-09-15 18:57:00,
2013-09-15 12:02:00,83.0,64.6,29.73,SW,229,2.3,2.3,54,0.00,FEW,,0.00,724.0,WeatherDisplay:10.37,2013-09-15 19:02:00,
2013-09-15 12:07:00,83.7,64.2,29.73,SW,227,5.0,5.0,52,0.00,FEW,,0.00,729.0,WeatherDisplay:10.37,2013-09-15 19:07:00,
2013-09-15 12:12:00,84.3,64.2,29.73,South,188,4.0,4.0,51,0.00,FEW,,0.00,733.0,WeatherDisplay:10.37,2013-09-15 19:12:00,
2013-09-15 12:17:00,84.8,65.2,29.72,SW,219,5.8,5.8,52,0.00,FEW,,0.00,735.0,WeatherDisplay:10.37,2013-09-15 19:17:00,
2013-09-15 12:18:00,84.9,65.3,29.73,SW,218,6.0,6.0,52,0.00,FEW,,0.00,733.0,WeatherDisplay:10.37,2013-09-15 19:18:00,
2013-09-15 12:23:00,85.0,64.3,29.72,West,275,8.1,8.1,50,0.00,FEW,,0.00,738.0,WeatherDisplay:10.37,2013-09-15 19:23:00,
2013-09-15 12:28:00,85.6,63.7,29.72,West,267,6.0,6.0,48,0.00,FEW,,0.00,747.0,WeatherDisplay:10.37,2013-09-15 19:28:00,
2013-09-15 12:33:00,85.9,63.9,29.71,West,266,3.5,3.5,48,0.00,FEW,,0.00,745.0,WeatherDisplay:10.37,2013-09-15 19:33:00,
2013-09-15 12:38:00,86.9,64.2,29.71,WSW,240,6.0,6.0,47,0.00,FEW,,0.00,742.0,WeatherDisplay:10.37,2013-09-15 19:38:00,
2013-09-15 12:43:00,87.5,63.5,29.71,WSW,243,4.6,4.6,45,0.00,FEW,,0.00,745.0,WeatherDisplay:10.37,2013-09-15 19:43:00,
2013-09-15 12:48:00,88.0,63.4,29.71,West,277,6.9,6.9,44,0.00,FEW,,0.00,747.0,WeatherDisplay:10.37,2013-09-15 19:48:00,
2013-09-15 12:53:00,88.3,63.6,29.71,SSW,207,4.6,4.6,44,0.00,FEW,,0.00,744.0,WeatherDisplay:10.37,2013-09-15 19:53:00,
2013-09-15 12:58:00,88.3,63.0,29.71,SW,223,5.0,5.0,43,0.00,FEW,,0.00,742.0,WeatherDisplay:10.37,2013-09-15 19:58:00,
2013-09-15 13:03:00,88.6,63.2,29.71,WSW,249,5.0,5.0,43,0.00,FEW,,0.00,742.0,WeatherDisplay:10.37,2013-09-15 20:03:00,
2013-09-15 13:08:00,89.4,63.3,29.71,West,261,5.0,5.0,42,0.00,FEW,,0.00,738.0,WeatherDisplay:10.37,2013-09-15 20:08:00,
2013-09-15 13:13:00,89.9,63.7,29.71,SW,218,5.8,5.8,42,0.00,FEW,,0.00,738.0,WeatherDisplay:10.37,2013-09-15 20:13:00,
2013-09-15 13:18:00,90.3,63.4,29.71,WSW,241,5.0,5.0,41,0.00,FEW,,0.00,737.0,WeatherDisplay:10.37,2013-09-15 20:18:00,
2013-09-15 13:23:00,90.0,63.1,29.71,West,266,6.9,6.9,41,0.00,FEW,,0.00,733.0,WeatherDisplay:10.37,2013-09-15 20:23:00,
2013-09-15 13:28:00,89.9,63.0,29.70,SSW,200,5.8,5.8,41,0.00,FEW,,0.00,726.0,WeatherDisplay:10.37,2013-09-15 20:28:00,
2013-09-15 13:33:00,90.2,61.9,29.70,WSW,258,8.1,8.1,39,0.00,FEW,,0.00,728.0,WeatherDisplay:10.37,2013-09-15 20:33:00,
2013-09-15 13:38:00,90.8,62.4,29.70,SW,217,6.0,6.0,39,0.00,FEW,,0.00,724.0,WeatherDisplay:10.37,2013-09-15 20:38:00,
2013-09-15 13:43:00,91.4,61.5,29.70,West,265,7.0,7.0,37,0.00,FEW,,0.00,721.0,WeatherDisplay:10.37,2013-09-15 20:43:00,
2013-09-15 13:48:00,91.5,61.6,29.70,WSW,238,7.0,7.0,37,0.00,FEW,,0.00,714.0,WeatherDisplay:10.37,2013-09-15 20:48:00,
2013-09-15 13:53:00,92.1,62.1,29.70,WNW,300,6.9,6.9,37,0.00,SCT,,0.00,475.0,WeatherDisplay:10.37,2013-09-15 20:53:00,
2013-09-15 13:58:00,92.2,62.9,29.69,West,259,6.9,6.9,38,0.00,FEW,,0.00,701.0,WeatherDisplay:10.37,2013-09-15 20:58:00,
2013-09-15 14:03:00,92.6,64.0,29.69,SSW,201,6.9,6.9,39,0.00,FEW,,0.00,698.0,WeatherDisplay:10.37,2013-09-15 21:03:00,
2013-09-15 14:08:00,92.4,63.9,29.69,West,268,9.0,9.0,39,0.00,FEW,,0.00,689.0,WeatherDisplay:10.37,2013-09-15 21:08:00,
2013-09-15 14:13:00,91.8,63.3,29.69,WSW,250,11.5,11.5,39,0.00,FEW,,0.00,684.0,WeatherDisplay:10.37,2013-09-15 21:13:00,
2013-09-15 14:18:00,91.5,63.8,29.69,West,265,10.4,10.4,40,0.00,FEW,,0.00,679.0,WeatherDisplay:10.37,2013-09-15 21:18:00,
2013-09-15 14:23:00,91.4,64.4,29.69,WSW,248,8.1,8.1,41,0.00,FEW,,0.00,670.0,WeatherDisplay:10.37,2013-09-15 21:23:00,
2013-09-15 14:28:00,91.1,63.4,29.69,West,262,11.5,11.5,40,0.00,FEW,,0.00,663.0,WeatherDisplay:10.37,2013-09-15 21:28:00,
2013-09-15 14:33:00,90.4,63.5,29.69,WSW,254,11.5,11.5,41,0.00,FEW,,0.00,656.0,WeatherDisplay:10.37,2013-09-15 21:33:00,
2013-09-15 14:38:00,90.2,62.6,29.69,West,279,10.4,10.4,40,0.00,FEW,,0.00,649.0,WeatherDisplay:10.37,2013-09-15 21:38:00,
2013-09-15 14:43:00,89.3,61.8,29.69,West,265,11.5,11.5,40,0.00,FEW,,0.00,643.0,WeatherDisplay:10.37,2013-09-15 21:43:00,
2013-09-15 14:48:00,89.2,61.7,29.69,West,269,11.5,11.5,40,0.00,FEW,,0.00,633.0,WeatherDisplay:10.37,2013-09-15 21:48:00,
2013-09-15 14:53:00,88.9,62.2,29.69,West,265,13.0,13.0,41,0.00,FEW,,0.00,621.0,WeatherDisplay:10.37,2013-09-15 21:53:00,
2013-09-15 14:58:00,88.1,62.1,29.69,WSW,241,12.7,12.7,42,0.00,FEW,,0.00,613.0,WeatherDisplay:10.37,2013-09-15 21:58:00,
2013-09-15 15:03:00,88.6,63.2,29.69,West,263,12.0,12.0,43,0.00,FEW,,0.00,599.0,WeatherDisplay:10.37,2013-09-15 22:03:00,
2013-09-15 15:08:00,88.2,62.9,29.69,WNW,290,10.4,10.4,43,0.00,FEW,,0.00,592.0,WeatherDisplay:10.37,2013-09-15 22:08:00,
2013-09-15 15:13:00,87.5,62.9,29.69,WNW,285,11.5,11.5,44,0.00,FEW,,0.00,580.0,WeatherDisplay:10.37,2013-09-15 22:13:00,
2013-09-15 15:18:00,86.4,62.5,29.69,West,265,11.5,11.5,45,0.00,FEW,,0.00,568.0,WeatherDisplay:10.37,2013-09-15 22:18:00,
2013-09-15 15:23:00,86.4,62.5,29.69,West,267,11.5,11.5,45,0.00,FEW,,0.00,554.0,WeatherDisplay:10.37,2013-09-15 22:23:00,
2013-09-15 15:28:00,85.8,62.6,29.69,WNW,287,10.4,10.4,46,0.00,FEW,,0.00,543.0,WeatherDisplay:10.37,2013-09-15 22:28:00,
2013-09-15 15:33:00,85.3,63.4,29.69,West,277,8.1,8.1,48,0.00,FEW,,0.00,531.0,WeatherDisplay:10.37,2013-09-15 22:33:00,
2013-09-15 15:38:00,85.5,63.0,29.69,West,269,8.1,8.1,47,0.00,FEW,,0.00,519.0,WeatherDisplay:10.37,2013-09-15 22:38:00,
2013-09-15 15:43:00,85.6,63.1,29.69,West,267,11.5,11.5,47,0.00,FEW,,0.00,506.0,WeatherDisplay:10.37,2013-09-15 22:43:00,
2013-09-15 15:48:00,85.2,62.7,29.69,West,275,10.0,10.0,47,0.00,FEW,,0.00,496.0,WeatherDisplay:10.37,2013-09-15 22:48:00,
2013-09-15 15:53:00,84.6,62.7,29.69,West,263,8.0,8.0,48,0.00,FEW,,0.00,483.0,WeatherDisplay:10.37,2013-09-15 22:53:00,
2013-09-15 15:58:00,84.1,62.3,29.69,West,272,6.9,6.9,48,0.00,FEW,,0.00,471.0,WeatherDisplay:10.37,2013-09-15 22:58:00,
2013-09-15 16:03:00,84.0,62.2,29.69,West,271,10.4,10.4,48,0.00,FEW,,0.00,455.0,WeatherDisplay:10.37,2013-09-15 23:03:00,
2013-09-15 16:08:00,83.3,61.6,29.69,West,280,11.5,11.5,48,0.00,FEW,,0.00,441.0,WeatherDisplay:10.37,2013-09-15 23:08:00,
2013-09-15 16:13:00,83.1,61.4,29.69,West,281,11.5,11.5,48,0.00,FEW,,0.00,429.0,WeatherDisplay:10.37,2013-09-15 23:13:00,
2013-09-15 16:18:00,83.0,61.9,29.69,West,281,10.4,10.4,49,0.00,FEW,,0.00,415.0,WeatherDisplay:10.37,2013-09-15 23:18:00,
2013-09-15 16:23:00,82.9,62.4,29.69,West,260,7.0,7.0,50,0.00,FEW,,0.00,399.0,WeatherDisplay:10.37,2013-09-15 23:23:00,
2013-09-15 16:28:00,82.6,62.6,29.69,WSW,257,8.0,8.0,51,0.00,FEW,,0.00,385.0,WeatherDisplay:10.37,2013-09-15 23:28:00,
2013-09-15 16:33:00,82.9,62.4,29.69,WSW,252,8.1,8.1,50,0.00,FEW,,0.00,371.0,WeatherDisplay:10.37,2013-09-15 23:33:00,
2013-09-15 16:38:00,82.8,61.7,29.69,WSW,253,6.9,6.9,49,0.00,FEW,,0.00,357.0,WeatherDisplay:10.37,2013-09-15 23:38:00,
2013-09-15 16:43:00,83.2,62.1,29.69,WSW,248,3.5,3.5,49,0.00,FEW,,0.00,341.0,WeatherDisplay:10.37,2013-09-15 23:43:00,
2013-09-15 16:48:00,83.5,61.7,29.69,SW,219,8.0,8.0,48,0.00,FEW,,0.00,329.0,WeatherDisplay:10.37,2013-09-15 23:48:00,
2013-09-15 16:53:00,83.6,62.4,29.69,West,259,6.0,6.0,49,0.00,FEW,,0.00,315.0,WeatherDisplay:10.37,2013-09-15 23:53:00,
2013-09-15 16:58:00,83.2,62.1,29.69,WSW,241,6.9,6.9,49,0.00,FEW,,0.00,299.0,WeatherDisplay:10.37,2013-09-15 23:58:00,
2013-09-15 17:03:00,82.7,61.6,29.69,WNW,287,10.4,10.4,49,0.00,FEW,,0.00,285.0,WeatherDisplay:10.37,2013-09-16 00:03:00,
2013-09-15 17:08:00,82.4,61.9,29.69,SW,217,6.9,6.9,50,0.00,FEW,,0.00,269.0,WeatherDisplay:10.37,2013-09-16 00:08:00,
2013-09-15 17:13:00,82.5,61.4,29.69,SSW,204,8.1,8.1,49,0.00,FEW,,0.00,253.0,WeatherDisplay:10.37,2013-09-16 00:13:00,
2013-09-15 17:18:00,82.4,60.7,29.69,SW,229,9.2,9.2,48,0.00,FEW,,0.00,239.0,WeatherDisplay:10.37,2013-09-16 00:18:00,
2013-09-15 17:23:00,82.3,60.6,29.70,West,260,8.1,8.1,48,0.00,FEW,,0.00,227.0,WeatherDisplay:10.37,2013-09-16 00:23:00,
2013-09-15 17:28:00,82.0,61.0,29.70,WSW,253,5.8,5.8,49,0.00,FEW,,0.00,213.0,WeatherDisplay:10.37,2013-09-16 00:28:00,
2013-09-15 17:33:00,82.3,61.2,29.70,WSW,250,6.9,6.9,49,0.00,FEW,,0.00,197.0,WeatherDisplay:10.37,2013-09-16 00:33:00,
2013-09-15 17:38:00,82.2,60.6,29.70,SW,236,8.1,8.1,48,0.00,FEW,,0.00,183.0,WeatherDisplay:10.37,2013-09-16 00:38:00,
2013-09-15 17:43:00,82.3,60.1,29.70,West,266,8.1,8.1,47,0.00,FEW,,0.00,167.0,WeatherDisplay:10.37,2013-09-16 00:43:00,
2013-09-15 17:48:00,82.0,60.4,29.70,SW,234,5.0,5.0,48,0.00,FEW,,0.00,149.0,WeatherDisplay:10.37,2013-09-16 00:48:00,
2013-09-15 17:53:00,81.7,60.1,29.70,WSW,242,6.9,6.9,48,0.00,FEW,,0.00,132.0,WeatherDisplay:10.37,2013-09-16 00:53:00,
2013-09-15 17:58:00,81.5,60.5,29.70,SW,223,5.8,5.8,49,0.00,SCT,,0.00,114.0,WeatherDisplay:10.37,2013-09-16 00:58:00,
2013-09-15 18:03:00,81.0,59.5,29.70,West,268,8.0,8.0,48,0.00,SCT,,0.00,100.0,WeatherDisplay:10.37,2013-09-16 01:03:00,
2013-09-15 18:08:00,80.6,59.7,29.70,West,272,8.1,8.1,49,0.00,SCT,,0.00,84.0,WeatherDisplay:10.37,2013-09-16 01:08:00,
2013-09-15 18:13:00,80.4,60.1,29.71,West,264,7.0,7.0,50,0.00,SCT,,0.00,67.0,WeatherDisplay:10.37,2013-09-16 01:13:00,
2013-09-15 18:18:00,80.0,60.2,29.71,West,267,6.9,6.9,51,0.00,BKN,,0.00,54.0,WeatherDisplay:10.37,2013-09-16 01:18:00,
2013-09-15 18:23:00,79.5,60.3,29.71,West,267,9.2,9.2,52,0.00,BKN,,0.00,44.0,WeatherDisplay:10.37,2013-09-16 01:23:00,
2013-09-15 18:28:00,79.1,60.5,29.71,West,273,6.9,6.9,53,0.00,BKN,,0.00,35.0,WeatherDisplay:10.37,2013-09-16 01:28:00,
2013-09-15 18:33:00,78.8,59.7,29.71,West,269,6.9,6.9,52,0.00,BKN,,0.00,25.0,WeatherDisplay:10.37,2013-09-16 01:33:00,
2013-09-15 18:38:00,78.5,59.4,29.71,WSW,254,4.6,4.6,52,0.00,BKN,,0.00,18.0,WeatherDisplay:10.37,2013-09-16 01:38:00,
2013-09-15 18:43:00,78.2,59.1,29.70,WSW,258,6.0,6.0,52,0.00,BKN,,0.00,12.0,WeatherDisplay:10.37,2013-09-16 01:43:00,
2013-09-15 18:48:00,77.8,59.8,29.70,West,261,4.0,4.0,54,0.00,BKN,,0.00,9.0,WeatherDisplay:10.37,2013-09-16 01:48:00,
2013-09-15 18:53:00,77.5,59.5,29.70,West,261,4.6,4.6,54,0.00,BKN,,0.00,7.0,WeatherDisplay:10.37,2013-09-16 01:53:00,
2013-09-15 18:58:00,77.1,59.2,29.70,West,259,5.0,5.0,54,0.00,CLR,,0.00,0.0,WeatherDisplay:10.37,2013-09-16 01:58:00,
2013-09-15 19:03:00,76.7,59.3,29.70,WSW,257,4.0,4.0,55,0.00,CLR,,0.00,0.0,WeatherDisplay:10.37,2013-09-16 02:03:00,
2013-09-15 19:08:00,76.4,59.5,29.70,WSW,257,5.0,5.0,56,0.00,CLR,,0.00,0.0,WeatherDisplay:10.37,2013-09-16 02:08:00,
2013-09-15 19:13:00,76.2,59.9,29.70,WSW,257,3.5,3.5,57,0.00,CLR,,0.00,0.0,WeatherDisplay:10.37,2013-09-16 02:13:00,
2013-09-15 19:18:00,76.0,59.7,29.70,West,259,4.6,4.6,57,0.00,CLR,,0.00,0.0,WeatherDisplay:10.37,2013-09-16 02:18:00,
2013-09-15 19:23:00,75.8,60.0,29.71,West,259,4.6,4.6,58,0.00,CLR,,0.00,0.0,WeatherDisplay:10.37,2013-09-16 02:23:00,
2013-09-15 19:28:00,75.7,59.9,29.70,West,259,5.8,5.8,58,0.00,CLR,,0.00,0.0,WeatherDisplay:10.37,2013-09-16 02:28:00,
2013-09-15 19:33:00,75.5,60.2,29.71,West,259,5.8,5.8,59,0.00,CLR,,0.00,0.0,WeatherDisplay:10.37,2013-09-16 02:33:00,
2013-09-15 19:38:00,75.2,60.4,29.71,West,260,5.8,5.8,60,0.00,CLR,,0.00,0.0,WeatherDisplay:10.37,2013-09-16 02:38:00,
2013-09-15 19:43:00,75.0,60.2,29.71,West,268,5.0,5.0,60,0.00,CLR,,0.00,0.0,WeatherDisplay:10.37,2013-09-16 02:43:00,
2013-09-15 19:48:00,74.8,60.4,29.71,West,265,6.0,6.0,61,0.00,CLR,,0.00,0.0,WeatherDisplay:10.37,2013-09-16 02:48:00,
2013-09-15 19:53:00,74.6,60.3,29.72,West,265,4.0,4.0,61,0.00,CLR,,0.00,0.0,WeatherDisplay:10.37,2013-09-16 02:53:00,
2013-09-15 19:58:00,74.4,60.1,29.72,West,264,2.3,2.3,61,0.00,CLR,,0.00,0.0,WeatherDisplay:10.37,2013-09-16 02:58:00,
2013-09-15 20:03:00,74.3,60.0,29.72,West,263,3.5,3.5,61,0.00,CLR,,0.00,0.0,WeatherDisplay:10.37,2013-09-16 03:03:00,
2013-09-15 20:08:00,74.1,60.2,29.72,West,263,3.5,3.5,62,0.00,CLR,,0.00,0.0,WeatherDisplay:10.37,2013-09-16 03:08:00,
2013-09-15 20:13:00,73.8,60.4,29.73,West,263,3.5,3.5,63,0.00,CLR,,0.00,0.0,WeatherDisplay:10.37,2013-09-16 03:13:00,
2013-09-15 20:18:00,73.6,60.2,29.73,West,263,6.0,6.0,63,0.00,CLR,,0.00,0.0,WeatherDisplay:10.37,2013-09-16 03:18:00,
2013-09-15 20:23:00,73.3,59.9,29.73,West,263,5.8,5.8,63,0.00,CLR,,0.00,0.0,WeatherDisplay:10.37,2013-09-16 03:23:00,
2013-09-15 20:28:00,73.1,60.2,29.73,West,263,4.6,4.6,64,0.00,CLR,,0.00,0.0,WeatherDisplay:10.37,2013-09-16 03:28:00,
2013-09-15 20:33:00,72.9,60.0,29.73,West,263,4.6,4.6,64,0.00,CLR,,0.00,0.0,WeatherDisplay:10.37,2013-09-16 03:33:00,
2013-09-15 20:38:00,72.8,59.9,29.73,West,263,2.3,2.3,64,0.00,CLR,,0.00,0.0,WeatherDisplay:10.37,2013-09-16 03:38:00,
2013-09-15 20:43:00,72.7,59.8,29.73,West,263,3.0,3.0,64,0.00,CLR,,0.00,0.0,WeatherDisplay:10.37,2013-09-16 03:43:00,
2013-09-15 20:48:00,72.6,59.7,29.74,West,263,2.3,2.3,64,0.00,CLR,,0.00,0.0,WeatherDisplay:10.37,2013-09-16 03:48:00,
2013-09-15 20:53:00,72.5,59.6,29.74,West,263,0.0,0.0,64,0.00,CLR,,0.00,0.0,WeatherDisplay:10.37,2013-09-16 03:53:00,
2013-09-15 20:59:00,72.5,59.6,29.74,West,263,2.3,2.3,64,0.00,CLR,,0.00,0.0,WeatherDisplay:10.37,2013-09-16 03:59:00,
2013-09-15 21:01:00,72.4,59.5,29.74,West,263,3.5,3.5,64,0.00,CLR,,0.00,0.0,WeatherDisplay:10.37,2013-09-16 04:01:00,
2013-09-15 21:02:00,72.4,59.5,29.74,West,262,3.5,3.5,64,0.00,CLR,,0.00,0.0,WeatherDisplay:10.37,2013-09-16 04:02:00,
2013-09-15 21:04:00,72.4,59.5,29.74,West,262,1.2,1.2,64,0.00,CLR,,0.00,0.0,WeatherDisplay:10.37,2013-09-16 04:04:00,
2013-09-15 21:09:00,72.2,59.8,29.74,West,262,2.3,2.3,65,0.00,CLR,,0.00,0.0,WeatherDisplay:10.37,2013-09-16 04:09:00,
2013-09-15 21:14:00,72.2,59.8,29.74,West,262,2.3,2.3,65,0.00,CLR,,0.00,0.0,WeatherDisplay:10.37,2013-09-16 04:14:00,
2013-09-15 21:19:00,72.1,59.7,29.74,West,262,2.0,2.0,65,0.00,CLR,,0.00,0.0,WeatherDisplay:10.37,2013-09-16 04:19:00,
2013-09-15 21:24:00,72.1,59.7,29.74,West,262,1.2,0.0,65,0.00,CLR,,0.00,0.0,WeatherDisplay:10.37,2013-09-16 04:24:00,
2013-09-15 21:29:00,72.0,59.6,29.74,West,262,0.0,0.0,65,0.00,CLR,,0.00,0.0,WeatherDisplay:10.37,2013-09-16 04:29:00,
2013-09-15 21:34:00,72.0,59.6,29.74,West,262,1.2,1.2,65,0.00,CLR,,0.00,0.0,WeatherDisplay:10.37,2013-09-16 04:34:00,
2013-09-15 21:39:00,72.0,59.6,29.74,West,262,1.2,0.0,65,0.00,CLR,,0.00,0.0,WeatherDisplay:10.37,2013-09-16 04:39:00,
2013-09-15 21:44:00,71.9,59.5,29.74,West,262,0.0,0.0,65,0.00,CLR,,0.00,0.0,WeatherDisplay:10.37,2013-09-16 04:44:00,
2013-09-15 21:49:00,71.9,59.5,29.74,West,262,0.0,0.0,65,0.00,CLR,,0.00,0.0,WeatherDisplay:10.37,2013-09-16 04:49:00,
2013-09-15 21:54:00,71.8,59.8,29.74,West,262,0.0,0.0,66,0.00,CLR,,0.00,0.0,WeatherDisplay:10.37,2013-09-16 04:54:00,
2013-09-15 21:59:00,71.8,59.8,29.75,West,262,1.2,1.2,66,0.00,CLR,,0.00,0.0,WeatherDisplay:10.37,2013-09-16 04:59:00,
2013-09-15 22:04:00,71.8,59.4,29.75,West,262,2.3,2.3,65,0.00,CLR,,0.00,0.0,WeatherDisplay:10.37,2013-09-16 05:04:00,
2013-09-15 22:09:00,71.9,59.5,29.75,West,262,1.2,1.2,65,0.00,CLR,,0.00,0.0,WeatherDisplay:10.37,2013-09-16 05:09:00,
2013-09-15 22:14:00,71.9,59.5,29.75,West,262,1.2,0.0,65,0.00,CLR,,0.00,0.0,WeatherDisplay:10.37,2013-09-16 05:14:00,
2013-09-15 22:19:00,71.9,59.5,29.75,West,262,0.0,0.0,65,0.00,CLR,,0.00,0.0,WeatherDisplay:10.37,2013-09-16 05:19:00,
2013-09-15 22:24:00,71.7,59.3,29.75,West,262,0.0,0.0,65,0.00,CLR,,0.00,0.0,WeatherDisplay:10.37,2013-09-16 05:24:00,
2013-09-15 22:29:00,71.6,59.2,29.75,West,262,0.0,0.0,65,0.00,CLR,,0.00,0.0,WeatherDisplay:10.37,2013-09-16 05:29:00,
2013-09-15 22:34:00,71.4,59.4,29.75,West,262,0.0,0.0,66,0.00,CLR,,0.00,0.0,WeatherDisplay:10.37,2013-09-16 05:34:00,
2013-09-15 22:39:00,71.3,59.4,29.75,West,262,0.0,0.0,66,0.00,CLR,,0.00,0.0,WeatherDisplay:10.37,2013-09-16 05:39:00,
2013-09-15 22:44:00,71.2,59.3,29.75,West,262,0.0,0.0,66,0.00,CLR,,0.00,0.0,WeatherDisplay:10.37,2013-09-16 05:44:00,
2013-09-15 22:49:00,71.1,59.6,29.75,West,262,1.2,0.0,67,0.00,CLR,,0.00,0.0,WeatherDisplay:10.37,2013-09-16 05:49:00,
2013-09-15 22:54:00,71.0,59.5,29.75,West,262,0.0,0.0,67,0.00,CLR,,0.00,0.0,WeatherDisplay:10.37,2013-09-16 05:54:00,
2013-09-15 22:59:00,71.1,59.6,29.75,West,262,0.0,0.0,67,0.00,CLR,,0.00,0.0,WeatherDisplay:10.37,2013-09-16 05:59:00,
2013-09-15 23:04:00,71.1,59.6,29.75,West,262,1.0,1.0,67,0.00,CLR,,0.00,0.0,WeatherDisplay:10.37,2013-09-16 06:04:00,
2013-09-15 23:09:00,71.3,59.8,29.75,West,262,1.2,1.2,67,0.00,CLR,,0.00,0.0,WeatherDisplay:10.37,2013-09-16 06:09:00,
2013-09-15 23:14:00,71.3,59.4,29.75,West,262,2.3,2.3,66,0.00,CLR,,0.00,0.0,WeatherDisplay:10.37,2013-09-16 06:14:00,
2013-09-15 23:19:00,71.4,59.9,29.75,West,262,2.3,2.3,67,0.00,CLR,,0.00,0.0,WeatherDisplay:10.37,2013-09-16 06:19:00,
2013-09-15 23:24:00,71.4,59.4,29.75,West,262,3.5,3.5,66,0.00,CLR,,0.00,0.0,WeatherDisplay:10.37,2013-09-16 06:24:00,
2013-09-15 23:29:00,71.4,59.4,29.75,West,262,3.5,3.5,66,0.00,CLR,,0.00,0.0,WeatherDisplay:10.37,2013-09-16 06:29:00,
2013-09-15 23:34:00,71.3,59.8,29.75,West,262,2.3,2.3,67,0.00,CLR,,0.00,0.0,WeatherDisplay:10.37,2013-09-16 06:34:00,
2013-09-15 23:39:00,71.2,59.7,29.75,West,262,3.5,3.5,67,0.00,CLR,,0.00,0.0,WeatherDisplay:10.37,2013-09-16 06:39:00,
2013-09-15 23:44:00,71.2,59.7,29.75,West,262,2.3,2.3,67,0.00,CLR,,0.00,0.0,WeatherDisplay:10.37,2013-09-16 06:44:00,
2013-09-15 23:49:00,71.2,59.7,29.75,West,262,3.5,3.5,67,0.00,CLR,,0.00,0.0,WeatherDisplay:10.37,2013-09-16 06:49:00,
2013-09-15 23:54:00,71.1,59.6,29.75,West,262,1.2,0.0,67,0.00,CLR,,0.00,0.0,WeatherDisplay:10.37,2013-09-16 06:54:00,
2013-09-15 23:59:00,71.1,59.6,29.75,West,262,1.2,0.0,67,0.00,CLR,,0.00,0.0,WeatherDisplay:10.37,2013-09-16 06:59:00,